createdAt,value
2018-04-19T00:01:18.383Z,16.66
2018-04-19T00:03:46.667Z,16.40
2018-04-19T00:06:14.936Z,16.45
2018-04-19T00:08:43.218Z,16.42
2018-04-19T00:11:11.495Z,16.56
2018-04-19T00:13:39.778Z,16.54
2018-04-19T00:16:08.060Z,16.38
2018-04-19T00:18:36.351Z,16.47
2018-04-19T00:21:04.626Z,16.56
2018-04-19T00:23:32.910Z,16.68
2018-04-19T00:26:01.191Z,16.58
2018-04-19T00:28:29.458Z,16.62
2018-04-19T00:30:57.735Z,16.53
2018-04-19T00:33:26.013Z,16.07
2018-04-19T00:35:54.305Z,16.18
2018-04-19T00:38:22.624Z,16.31
2018-04-19T00:40:51.104Z,16.16
2018-04-19T00:43:19.375Z,16.52
2018-04-19T00:45:47.657Z,16.33
2018-04-19T00:48:15.954Z,16.34
2018-04-19T00:50:44.230Z,16.25
2018-04-19T00:53:12.510Z,16.18
2018-04-19T00:55:40.782Z,16.13
2018-04-19T00:58:09.058Z,15.97
2018-04-19T01:00:37.328Z,15.94
2018-04-19T01:03:05.614Z,16.21
2018-04-19T01:05:33.887Z,16.10
2018-04-19T01:08:02.167Z,15.42
2018-04-19T01:10:30.458Z,15.64
2018-04-19T01:12:58.738Z,15.76
2018-04-19T01:15:27.026Z,15.78
2018-04-19T01:17:55.294Z,15.81
2018-04-19T01:20:23.590Z,15.78
2018-04-19T01:22:51.859Z,15.77
2018-04-19T01:25:20.186Z,15.55
2018-04-19T01:27:48.450Z,15.52
2018-04-19T01:30:16.736Z,15.64
2018-04-19T01:32:45.018Z,15.60
2018-04-19T01:35:13.303Z,15.61
2018-04-19T01:37:41.577Z,15.54
2018-04-19T01:40:09.858Z,15.46
2018-04-19T01:42:38.138Z,15.69
2018-04-19T01:45:06.414Z,15.70
2018-04-19T01:47:34.690Z,15.48
2018-04-19T01:50:03.007Z,15.41
2018-04-19T01:52:31.281Z,15.55
2018-04-19T01:54:59.573Z,15.39
2018-04-19T01:57:27.847Z,15.34
2018-04-19T01:59:56.126Z,15.28
2018-04-19T02:02:24.398Z,15.28
2018-04-19T02:04:52.682Z,14.97
2018-04-19T02:07:20.988Z,15.05
2018-04-19T02:09:49.271Z,15.23
2018-04-19T02:12:19.508Z,15.10
2018-04-19T02:14:47.774Z,15.07
2018-04-19T02:17:16.064Z,14.92
2018-04-19T02:19:44.346Z,15.11
2018-04-19T02:22:12.630Z,14.86
2018-04-19T02:24:40.898Z,14.85
2018-04-19T02:27:09.210Z,14.91
2018-04-19T02:29:37.490Z,15.11
2018-04-19T02:32:05.779Z,14.93
2018-04-19T02:34:34.062Z,14.76
2018-04-19T02:37:02.342Z,14.56
2018-04-19T02:39:30.632Z,14.62
2018-04-19T02:41:58.902Z,14.64
2018-04-19T02:44:27.219Z,14.66
2018-04-19T02:46:55.482Z,14.80
2018-04-19T02:49:23.792Z,14.66
2018-04-19T02:51:52.060Z,14.86
2018-04-19T02:54:20.343Z,14.72
2018-04-19T02:56:48.626Z,14.55
2018-04-19T02:59:16.918Z,14.61
2018-04-19T03:01:45.207Z,14.54
2018-04-19T03:04:13.486Z,14.50
2018-04-19T03:06:41.774Z,14.56
2018-04-19T03:09:10.054Z,14.43
2018-04-19T03:11:38.343Z,14.50
2018-04-19T03:14:06.625Z,14.46
2018-04-19T03:16:34.896Z,14.46
2018-04-19T03:19:03.206Z,14.50
2018-04-19T03:21:31.497Z,14.33
2018-04-19T03:23:59.789Z,14.39
2018-04-19T03:29:25.138Z,14.31
2018-04-19T03:31:53.763Z,14.18
2018-04-19T03:34:22.050Z,14.22
2018-04-19T03:36:50.347Z,14.26
2018-04-19T03:39:18.627Z,14.38
2018-04-19T03:41:47.179Z,14.46
2018-04-19T03:44:15.454Z,14.43
2018-04-19T03:46:43.729Z,14.39
2018-04-19T03:49:12.018Z,14.50
2018-04-19T03:51:40.533Z,14.45
2018-04-19T03:54:08.826Z,14.50
2018-04-19T03:56:37.102Z,14.53
2018-04-19T03:59:05.382Z,14.60
2018-04-19T04:01:33.663Z,14.29
2018-04-19T04:04:01.939Z,14.28
2018-04-19T04:06:30.239Z,14.30
2018-04-19T04:08:58.535Z,14.33
2018-04-19T04:11:26.819Z,14.37
2018-04-19T04:13:55.117Z,14.45
2018-04-19T04:16:35.212Z,14.33
2018-04-19T04:19:15.325Z,14.32
2018-04-19T04:21:55.279Z,14.11
2018-04-19T04:24:23.557Z,14.22
2018-04-19T04:26:51.834Z,14.22
2018-04-19T04:29:20.138Z,14.21
2018-04-19T04:31:48.416Z,14.17
2018-04-19T04:34:16.693Z,14.23
2018-04-19T04:36:44.987Z,14.13
2018-04-19T04:39:13.266Z,14.20
2018-04-19T04:41:41.566Z,14.20
2018-04-19T04:44:09.851Z,14.15
2018-04-19T04:46:38.123Z,14.19
2018-04-19T04:49:06.424Z,14.28
2018-04-19T04:51:34.707Z,14.15
2018-04-19T04:54:03.971Z,14.07
2018-04-19T04:56:32.243Z,14.12
2018-04-19T04:59:00.525Z,14.27
2018-04-19T05:01:28.827Z,14.23
2018-04-19T05:03:57.108Z,14.26
2018-04-19T05:06:25.500Z,14.37
2018-04-19T05:08:53.950Z,14.20
2018-04-19T05:11:22.234Z,14.28
2018-04-19T05:13:50.522Z,14.37
2018-04-19T05:16:19.755Z,14.41
2018-04-19T05:18:48.301Z,14.57
2018-04-19T05:21:16.578Z,14.57
2018-04-19T05:23:44.861Z,14.46
2018-04-19T05:26:13.177Z,14.50
2018-04-19T05:28:41.449Z,14.54
2018-04-19T05:31:13.812Z,14.60
2018-04-19T05:33:42.115Z,14.76
2018-04-19T05:36:10.397Z,14.62
2018-04-19T05:38:38.693Z,14.71
2018-04-19T05:41:08.900Z,14.79
2018-04-19T05:43:37.452Z,14.76
2018-04-19T05:46:05.870Z,14.76
2018-04-19T05:48:34.174Z,14.86
2018-04-19T05:51:02.535Z,14.85
2018-04-19T05:53:30.812Z,14.99
2018-04-19T05:55:59.369Z,14.96
2018-04-19T05:58:27.670Z,15.08
2018-04-19T06:00:56.955Z,15.22
2018-04-19T06:03:25.250Z,15.23
2018-04-19T06:05:54.546Z,15.33
2018-04-19T06:08:22.850Z,15.57
2018-04-19T06:10:51.137Z,15.32
2018-04-19T06:13:19.420Z,15.46
2018-04-19T06:15:47.717Z,15.57
2018-04-19T06:18:16.003Z,15.66
2018-04-19T06:20:44.312Z,15.71
2018-04-19T06:23:13.438Z,15.79
2018-04-19T06:25:41.733Z,15.87
2018-04-19T06:28:10.022Z,15.94
2018-04-19T06:30:38.301Z,16.07
2018-04-19T06:33:06.898Z,16.24
2018-04-19T06:35:35.186Z,16.32
2018-04-19T06:38:03.498Z,16.43
2018-04-19T06:40:31.807Z,16.48
2018-04-19T06:43:01.030Z,16.87
2018-04-19T06:45:29.330Z,17.00
2018-04-19T06:47:57.610Z,17.20
2018-04-19T06:50:25.911Z,17.39
2018-04-19T06:52:54.201Z,17.75
2018-04-19T06:55:22.466Z,17.84
2018-04-19T06:57:50.766Z,18.24
2018-04-19T07:00:19.042Z,18.22
2018-04-19T07:02:47.322Z,18.52
2018-04-19T07:05:15.614Z,18.75
2018-04-19T07:07:43.890Z,18.94
2018-04-19T07:10:12.186Z,18.90
2018-04-19T07:12:40.470Z,19.40
2018-04-19T07:15:08.759Z,19.65
2018-04-19T07:17:37.046Z,19.53
2018-04-19T07:20:05.322Z,19.76
2018-04-19T07:22:33.631Z,19.79
2018-04-19T07:25:01.927Z,20.42
2018-04-19T07:27:30.209Z,20.34
2018-04-19T07:29:58.498Z,20.95
2018-04-19T07:32:26.776Z,21.96
2018-04-19T07:34:55.086Z,21.66
2018-04-19T07:37:23.363Z,21.25
2018-04-19T07:39:51.642Z,22.06
2018-04-19T07:42:19.940Z,22.08
2018-04-19T07:44:48.214Z,22.84
2018-04-19T07:47:16.506Z,22.63
2018-04-19T07:49:44.791Z,22.31
2018-04-19T07:52:13.070Z,23.66
2018-04-19T07:54:41.365Z,23.34
2018-04-19T07:57:09.648Z,23.32
2018-04-19T07:59:37.943Z,22.78
2018-04-19T08:02:06.219Z,23.23
2018-04-19T08:04:34.550Z,23.27
2018-04-19T08:07:02.841Z,22.97
2018-04-19T08:09:31.115Z,23.67
2018-04-19T08:11:59.677Z,23.60
2018-04-19T08:14:27.953Z,23.88
2018-04-19T08:16:56.234Z,24.80
2018-04-19T08:19:24.514Z,24.60
2018-04-19T08:21:52.796Z,24.36
2018-04-19T08:24:21.909Z,24.54
2018-04-19T08:26:50.207Z,25.77
2018-04-19T08:29:18.474Z,24.41
2018-04-19T08:31:46.766Z,25.84
2018-04-19T08:34:15.074Z,26.37
2018-04-19T08:36:43.366Z,25.66
2018-04-19T08:39:11.656Z,25.07
2018-04-19T08:41:39.956Z,25.10
2018-04-19T08:44:08.239Z,26.26
2018-04-19T08:46:36.513Z,27.05
2018-04-19T08:49:04.800Z,26.87
2018-04-19T08:51:33.128Z,27.60
2018-04-19T08:54:01.387Z,26.97
2018-04-19T08:56:29.673Z,27.57
2018-04-19T08:58:57.945Z,27.04
2018-04-19T09:01:26.236Z,27.14
2018-04-19T09:03:54.505Z,27.10
2018-04-19T09:06:22.793Z,28.96
2018-04-19T09:08:51.083Z,28.74
2018-04-19T09:11:19.354Z,28.11
2018-04-19T09:13:47.637Z,28.53
2018-04-19T09:16:15.911Z,27.08
2018-04-19T09:18:44.211Z,27.61
2018-04-19T09:21:12.494Z,28.49
2018-04-19T09:23:40.770Z,27.89
2018-04-19T09:26:09.047Z,28.73
2018-04-19T09:28:37.318Z,29.30
2018-04-19T09:31:05.942Z,28.67
2018-04-19T09:33:34.227Z,28.05
2018-04-19T09:36:02.492Z,27.84
2018-04-19T09:38:30.778Z,28.70
2018-04-19T09:40:59.082Z,29.08
2018-04-19T09:43:27.353Z,27.97
2018-04-19T09:45:55.638Z,28.04
2018-04-19T09:48:23.916Z,27.72
2018-04-19T09:50:52.210Z,27.39
2018-04-19T09:53:20.486Z,27.27
2018-04-19T09:55:48.766Z,27.48
2018-04-19T09:58:17.053Z,27.25
2018-04-19T10:00:45.322Z,27.81
2018-04-19T10:03:18.511Z,27.87
2018-04-19T10:05:47.707Z,27.46
2018-04-19T10:08:15.979Z,27.56
2018-04-19T10:10:44.262Z,27.35
2018-04-19T10:13:12.542Z,27.38
2018-04-19T10:15:40.814Z,27.44
2018-04-19T10:18:09.094Z,27.60
2018-04-19T10:20:37.379Z,27.50
2018-04-19T10:23:05.660Z,27.65
2018-04-19T10:25:33.942Z,27.95
2018-04-19T10:28:02.402Z,27.63
2018-04-19T10:33:28.539Z,27.94
2018-04-19T10:35:56.821Z,27.70
2018-04-19T10:38:25.115Z,27.46
2018-04-19T10:40:53.397Z,27.77
2018-04-19T10:43:21.683Z,27.85
2018-04-19T10:45:49.960Z,28.16
2018-04-19T10:48:18.250Z,28.07
2018-04-19T10:50:46.518Z,28.09
2018-04-19T10:53:14.799Z,28.23
2018-04-19T10:55:43.078Z,28.17
2018-04-19T10:58:11.357Z,27.96
2018-04-19T11:00:39.652Z,27.91
2018-04-19T11:03:07.922Z,28.07
2018-04-19T11:05:36.228Z,28.23
2018-04-19T11:08:04.549Z,28.18
2018-04-19T11:10:32.839Z,28.30
2018-04-19T11:13:02.725Z,28.60
2018-04-19T11:15:31.106Z,28.48
2018-04-19T11:17:59.391Z,28.28
2018-04-19T11:20:27.676Z,28.75
2018-04-19T11:22:55.959Z,28.59
2018-04-19T11:25:24.242Z,28.56
2018-04-19T11:27:52.526Z,28.36
2018-04-19T11:30:20.806Z,28.43
2018-04-19T11:32:50.068Z,28.40
2018-04-19T11:35:18.343Z,28.75
2018-04-19T11:37:46.638Z,29.01
2018-04-19T11:40:14.918Z,28.46
2018-04-19T11:42:44.126Z,28.75
2018-04-19T11:45:13.361Z,28.85
2018-04-19T11:47:41.634Z,28.58
2018-04-19T11:50:09.947Z,28.49
2018-04-19T11:52:40.155Z,28.80
2018-04-19T11:55:08.451Z,28.98
2018-04-19T11:57:36.726Z,28.92
2018-04-19T12:00:06.363Z,28.92
2018-04-19T12:02:34.653Z,29.22
2018-04-19T12:05:02.942Z,28.93
2018-04-19T12:07:31.246Z,29.17
2018-04-19T12:09:59.515Z,29.10
2018-04-19T12:12:27.801Z,29.52
2018-04-19T12:14:56.218Z,29.28
2018-04-19T12:17:24.495Z,29.43
2018-04-19T12:19:52.781Z,29.76
2018-04-19T12:22:21.101Z,29.47
2018-04-19T12:24:49.393Z,29.41
2018-04-19T12:27:17.664Z,29.43
2018-04-19T12:29:45.938Z,29.61
2018-04-19T12:32:14.223Z,29.47
2018-04-19T12:34:42.531Z,29.40
2018-04-19T12:37:10.810Z,29.61
2018-04-19T12:39:39.087Z,29.46
2018-04-19T12:42:07.375Z,29.65
2018-04-19T12:44:35.659Z,29.71
2018-04-19T12:47:03.942Z,29.81
2018-04-19T12:49:32.210Z,29.35
2018-04-19T12:52:00.490Z,29.99
2018-04-19T12:54:28.776Z,29.88
2018-04-19T12:56:57.052Z,29.79
2018-04-19T12:59:25.342Z,29.95
2018-04-19T13:01:53.954Z,29.88
2018-04-19T13:04:22.234Z,29.99
2018-04-19T13:06:50.509Z,30.06
2018-04-19T13:09:18.855Z,30.18
2018-04-19T13:11:47.134Z,30.07
2018-04-19T13:14:15.414Z,29.94
2018-04-19T13:16:43.710Z,30.07
2018-04-19T13:19:11.991Z,30.42
2018-04-19T13:21:40.287Z,30.22
2018-04-19T13:24:08.567Z,29.96
2018-04-19T13:26:37.114Z,30.33
2018-04-19T13:29:05.407Z,30.72
2018-04-19T13:31:33.679Z,30.48
2018-04-19T13:34:02.594Z,30.59
2018-04-19T13:36:30.864Z,30.63
2018-04-19T13:38:59.150Z,30.37
2018-04-19T13:41:27.438Z,30.50
2018-04-19T13:43:55.715Z,30.49
2018-04-19T13:46:23.992Z,30.58
2018-04-19T13:48:52.270Z,30.49
2018-04-19T13:51:20.550Z,30.45
2018-04-19T13:53:48.830Z,30.57
2018-04-19T13:56:18.086Z,30.45
2018-04-19T13:58:46.615Z,30.26
2018-04-19T14:01:14.891Z,30.20
2018-04-19T14:03:43.158Z,30.38
2018-04-19T14:06:11.447Z,30.50
2018-04-19T14:08:39.724Z,30.41
2018-04-19T14:11:08.003Z,30.27
2018-04-19T14:13:36.291Z,30.14
2018-04-19T14:16:05.635Z,30.56
2018-04-19T14:18:33.934Z,30.42
2018-04-19T14:21:03.150Z,30.40
2018-04-19T14:23:31.438Z,30.79
2018-04-19T14:25:59.739Z,30.38
2018-04-19T14:28:27.984Z,30.45
2018-04-19T14:30:56.258Z,30.40
2018-04-19T14:33:25.498Z,30.76
2018-04-19T14:35:54.718Z,30.76
2018-04-19T14:38:23.034Z,30.75
2018-04-19T14:40:51.294Z,30.77
2018-04-19T14:43:20.502Z,30.62
2018-04-19T14:45:48.792Z,30.60
2018-04-19T14:48:17.084Z,30.93
2018-04-19T14:50:45.393Z,30.61
2018-04-19T14:53:13.683Z,30.44
2018-04-19T14:55:41.966Z,30.48
2018-04-19T14:58:10.250Z,30.49
2018-04-19T15:00:38.561Z,30.59
2018-04-19T15:03:06.828Z,30.36
2018-04-19T15:05:35.110Z,30.31
2018-04-19T15:08:03.394Z,30.37
2018-04-19T15:10:31.664Z,30.30
2018-04-19T15:12:59.949Z,30.22
2018-04-19T15:15:28.214Z,30.39
2018-04-19T15:17:56.494Z,30.20
2018-04-19T15:20:24.777Z,30.17
2018-04-19T15:22:53.058Z,30.11
2018-04-19T15:25:21.358Z,30.19
2018-04-19T15:27:49.658Z,30.06
2018-04-19T15:30:17.913Z,30.14
2018-04-19T15:32:46.212Z,30.46
2018-04-19T15:35:14.491Z,30.35
2018-04-19T15:37:42.771Z,30.38
2018-04-19T15:40:11.058Z,30.27
2018-04-19T15:42:39.342Z,29.83
2018-04-19T15:45:07.626Z,29.79
2018-04-19T15:47:35.908Z,29.95
2018-04-19T15:50:04.216Z,29.77
2018-04-19T15:52:32.479Z,29.84
2018-04-19T15:55:00.839Z,29.91
2018-04-19T15:57:29.065Z,29.84
2018-04-19T15:59:57.353Z,29.89
2018-04-19T16:02:25.633Z,29.83
2018-04-19T16:04:53.930Z,29.98
2018-04-19T16:07:22.189Z,29.93
2018-04-19T16:09:50.474Z,29.72
2018-04-19T16:12:18.746Z,29.77
2018-04-19T16:14:47.058Z,29.87
2018-04-19T16:17:15.330Z,29.66
2018-04-19T16:19:43.610Z,29.60
2018-04-19T16:22:11.901Z,29.72
2018-04-19T16:24:40.175Z,29.67
2018-04-19T16:27:08.454Z,29.65
2018-04-19T16:29:36.726Z,29.70
2018-04-19T16:32:05.010Z,29.45
2018-04-19T16:34:34.582Z,29.49
2018-04-19T16:37:02.857Z,29.54
2018-04-19T16:39:31.206Z,29.46
2018-04-19T16:41:59.522Z,29.36
2018-04-19T16:44:27.756Z,29.32
2018-04-19T16:46:56.034Z,29.26
2018-04-19T16:49:24.310Z,29.20
2018-04-19T16:51:52.606Z,29.34
2018-04-19T16:54:22.466Z,29.17
2018-04-19T16:56:52.712Z,29.24
2018-04-19T16:59:21.007Z,29.17
2018-04-19T17:01:49.298Z,29.05
2018-04-19T17:04:17.554Z,28.92
2018-04-19T17:06:45.849Z,29.01
2018-04-19T17:09:14.126Z,28.91
2018-04-19T17:11:42.395Z,28.92
2018-04-19T17:14:10.683Z,28.90
2018-04-19T17:16:39.590Z,28.95
2018-04-19T17:19:07.882Z,28.80
2018-04-19T17:21:36.159Z,28.72
2018-04-19T17:24:04.450Z,28.67
2018-04-19T17:26:32.726Z,28.71
2018-04-19T17:29:01.016Z,28.69
2018-04-19T17:31:29.287Z,28.51
2018-04-19T17:33:57.576Z,28.32
2018-04-19T17:36:25.854Z,28.42
2018-04-19T17:38:54.138Z,28.30
2018-04-19T17:41:22.407Z,28.23
2018-04-19T17:43:50.693Z,28.17
2018-04-19T17:46:18.971Z,28.03
2018-04-19T17:48:47.254Z,28.08
2018-04-19T17:51:15.517Z,28.01
2018-04-19T17:53:43.812Z,27.86
2018-04-19T17:56:12.070Z,27.73
2018-04-19T17:58:40.348Z,27.62
2018-04-19T18:01:08.631Z,27.47
2018-04-19T18:03:36.902Z,27.30
2018-04-19T18:06:06.125Z,27.19
2018-04-19T18:08:34.401Z,26.95
2018-04-19T18:11:02.677Z,26.80
2018-04-19T18:13:30.950Z,26.94
2018-04-19T18:15:59.235Z,26.88
2018-04-19T18:18:27.502Z,26.84
2018-04-19T18:20:55.788Z,26.81
2018-04-19T18:23:24.055Z,26.72
2018-04-19T18:25:52.346Z,26.61
2018-04-19T18:28:20.646Z,26.25
2018-04-19T18:30:48.939Z,26.00
2018-04-19T18:33:17.195Z,26.17
2018-04-19T18:35:45.482Z,25.91
2018-04-19T18:38:13.755Z,25.84
2018-04-19T18:40:42.030Z,25.88
2018-04-19T18:43:10.329Z,25.35
2018-04-19T18:45:38.594Z,25.16
2018-04-19T18:48:06.884Z,25.39
2018-04-19T18:50:35.169Z,25.26
2018-04-19T18:53:03.452Z,25.17
2018-04-19T18:55:33.659Z,25.06
2018-04-19T18:58:01.966Z,24.86
2018-04-19T19:00:30.258Z,24.54
2018-04-19T19:02:58.552Z,24.63
2018-04-19T19:05:26.838Z,24.70
2018-04-19T19:07:55.126Z,24.45
2018-04-19T19:10:23.409Z,24.16
2018-04-19T19:12:51.683Z,24.25
2018-04-19T19:18:49.451Z,24.10
2018-04-19T19:21:17.718Z,23.91
2018-04-19T19:23:46.011Z,24.00
2018-04-19T19:26:14.300Z,23.84
2018-04-19T19:28:42.579Z,23.71
2018-04-19T19:31:10.858Z,23.84
2018-04-19T19:33:39.142Z,23.22
2018-04-19T19:36:07.423Z,23.24
2018-04-19T19:38:35.731Z,23.12
2018-04-19T19:41:03.998Z,22.85
2018-04-19T19:43:32.290Z,22.79
2018-04-19T19:46:00.609Z,22.79
2018-04-19T19:48:28.895Z,22.82
2018-04-19T19:50:57.189Z,22.80
2018-04-19T19:53:26.057Z,22.90
2018-04-19T19:55:54.382Z,22.86
2018-04-19T19:58:22.659Z,22.86
2018-04-19T20:00:50.958Z,22.77
2018-04-19T20:03:20.247Z,22.72
2018-04-19T20:05:48.528Z,22.43
2018-04-19T20:08:16.812Z,22.48
2018-04-19T20:10:45.115Z,22.62
2018-04-19T20:13:14.327Z,22.80
2018-04-19T20:15:42.668Z,22.50
2018-04-19T20:18:13.578Z,22.25
2018-04-19T20:20:43.786Z,22.27
2018-04-19T20:23:12.103Z,22.24
2018-04-19T20:25:40.407Z,22.30
2018-04-19T20:28:08.897Z,22.26
2018-04-19T20:30:37.360Z,22.03
2018-04-19T20:33:05.647Z,21.93
2018-04-19T20:35:33.963Z,21.99
2018-04-19T20:38:02.198Z,21.90
2018-04-19T20:40:30.491Z,21.80
2018-04-19T20:42:58.778Z,21.66
2018-04-19T20:45:28.065Z,21.94
2018-04-19T20:47:56.358Z,21.44
2018-04-19T20:50:24.639Z,21.46
2018-04-19T20:52:52.923Z,21.45
2018-04-19T20:55:21.199Z,21.46
2018-04-19T20:57:49.503Z,21.58
2018-04-19T21:00:18.919Z,21.47
2018-04-19T21:02:47.540Z,21.36
2018-04-19T21:05:15.859Z,21.24
2018-04-19T21:07:45.146Z,21.33
2018-04-19T21:10:13.391Z,21.25
2018-04-19T21:12:41.665Z,21.19
2018-04-19T21:15:09.988Z,21.16
2018-04-19T21:17:38.276Z,21.15
2018-04-19T21:20:06.562Z,20.87
2018-04-19T21:22:34.846Z,20.82
2018-04-19T21:25:03.151Z,20.69
2018-04-19T21:27:31.411Z,20.83
2018-04-19T21:29:59.696Z,20.74
2018-04-19T21:32:28.281Z,20.70
2018-04-19T21:34:57.411Z,20.68
2018-04-19T21:37:25.689Z,20.45
2018-04-19T21:39:53.974Z,20.18
2018-04-19T21:42:22.246Z,20.20
2018-04-19T21:44:50.534Z,19.96
2018-04-19T21:47:18.814Z,19.84
2018-04-19T21:49:47.114Z,19.90
2018-04-19T21:52:15.390Z,19.71
2018-04-19T21:54:43.934Z,19.58
2018-04-19T21:57:12.210Z,19.81
2018-04-19T21:59:40.482Z,19.45
2018-04-19T22:02:08.798Z,19.43
2018-04-19T22:04:37.078Z,19.23
2018-04-19T22:07:05.397Z,19.31
2018-04-19T22:09:33.658Z,19.38
2018-04-19T22:12:01.941Z,19.26
2018-04-19T22:14:30.222Z,19.13
2018-04-19T22:16:58.522Z,19.09
2018-04-19T22:19:26.807Z,19.00
2018-04-19T22:21:55.093Z,18.92
2018-04-19T22:24:23.410Z,18.92
2018-04-19T22:26:51.701Z,18.88
2018-04-19T22:29:19.969Z,18.81
2018-04-19T22:31:48.254Z,18.53
2018-04-19T22:34:16.524Z,18.72
2018-04-19T22:36:44.805Z,18.66
2018-04-19T22:39:13.081Z,18.53
2018-04-19T22:41:41.643Z,18.53
2018-04-19T22:44:09.917Z,18.62
2018-04-19T22:46:38.218Z,18.69
2018-04-19T22:49:06.514Z,18.68
2018-04-19T22:51:34.794Z,18.72
2018-04-19T22:54:03.082Z,18.44
2018-04-19T22:56:31.359Z,18.62
2018-04-19T22:58:59.646Z,18.53
2018-04-19T23:01:27.933Z,18.55
2018-04-19T23:03:56.222Z,18.49
2018-04-19T23:06:24.502Z,18.31
2018-04-19T23:08:52.786Z,18.43
2018-04-19T23:11:21.062Z,18.45
2018-04-19T23:13:49.346Z,18.25
2018-04-19T23:16:17.625Z,18.18
2018-04-19T23:18:45.913Z,18.13
2018-04-19T23:21:14.189Z,17.98
2018-04-19T23:23:42.491Z,17.99
2018-04-19T23:26:10.765Z,18.12
2018-04-19T23:28:39.038Z,18.10
2018-04-19T23:31:07.326Z,18.15
2018-04-19T23:33:35.618Z,18.00
2018-04-19T23:36:03.890Z,18.11
2018-04-19T23:38:32.199Z,18.10
2018-04-19T23:41:00.450Z,17.98
2018-04-19T23:43:28.747Z,17.87
2018-04-19T23:45:57.037Z,17.75
2018-04-19T23:48:25.313Z,17.87
2018-04-19T23:50:53.631Z,17.88
2018-04-19T23:53:21.906Z,17.87
2018-04-19T23:55:50.199Z,17.69
2018-04-19T23:58:18.478Z,17.77
